createdAt,value
2017-03-13T00:00:28.742Z,1023.14
2017-03-13T00:01:09.206Z,1023.15
2017-03-13T00:01:49.714Z,1023.15
2017-03-13T00:02:30.147Z,1023.13
2017-03-13T00:03:10.623Z,1023.17
2017-03-13T00:03:51.134Z,1023.17
2017-03-13T00:04:31.609Z,1023.18
2017-03-13T00:05:12.082Z,1023.22
2017-03-13T00:05:52.609Z,1023.17
2017-03-13T00:06:33.109Z,1023.22
2017-03-13T00:07:13.549Z,1023.21
2017-03-13T00:07:54.057Z,1023.17
2017-03-13T00:08:34.547Z,1023.23
2017-03-13T00:09:15.025Z,1023.21
2017-03-13T00:09:55.548Z,1023.24
2017-03-13T00:10:36.069Z,1023.2
2017-03-13T00:11:16.518Z,1023.25
2017-03-13T00:11:57.017Z,1023.22
2017-03-13T00:12:37.493Z,1023.23
2017-03-13T00:13:17.982Z,1023.23
2017-03-13T00:13:58.468Z,1023.23
2017-03-13T00:14:38.956Z,1023.22
2017-03-13T00:15:19.472Z,1023.2
2017-03-13T00:15:59.993Z,1023.21
2017-03-13T00:16:40.513Z,1023.19
2017-03-13T00:17:20.987Z,1023.18
2017-03-13T00:18:01.481Z,1023.15
2017-03-13T00:18:41.939Z,1023.15
2017-03-13T00:19:22.436Z,1023.16
2017-03-13T00:20:02.940Z,1023.17
2017-03-13T00:20:43.407Z,1023.14
2017-03-13T00:21:23.878Z,1023.17
2017-03-13T00:22:04.350Z,1023.2
2017-03-13T00:22:44.851Z,1023.2
2017-03-13T00:23:25.371Z,1023.21
2017-03-13T00:24:05.835Z,1023.2
2017-03-13T00:24:46.331Z,1023.19
2017-03-13T00:25:26.784Z,1023.19
2017-03-13T00:26:07.251Z,1023.19
2017-03-13T00:26:47.742Z,1023.23
2017-03-13T00:27:28.244Z,1023.27
2017-03-13T00:28:08.704Z,1023.18
2017-03-13T00:28:49.176Z,1023.19
2017-03-13T00:29:29.723Z,1023.24
2017-03-13T00:30:10.244Z,1023.17
2017-03-13T00:30:50.740Z,1023.15
2017-03-13T00:31:31.207Z,1023.18
2017-03-13T00:32:11.688Z,1023.17
2017-03-13T00:32:52.160Z,1023.12
2017-03-13T00:33:32.662Z,1023.12
2017-03-13T00:34:13.111Z,1023.16
2017-03-13T00:34:53.581Z,1023.09
2017-03-13T00:35:34.068Z,1023.12
2017-03-13T00:36:14.533Z,1023.08
2017-03-13T00:36:55.019Z,1023.1
2017-03-13T00:37:35.526Z,1023.08
2017-03-13T00:38:16.016Z,1023.09
2017-03-13T00:38:56.518Z,1023.03
2017-03-13T00:39:36.992Z,1023.07
2017-03-13T00:40:17.478Z,1023.07
2017-03-13T00:40:57.968Z,1023.11
2017-03-13T00:41:38.453Z,1023.13
2017-03-13T00:42:18.929Z,1023.05
2017-03-13T00:42:59.407Z,1023.04
2017-03-13T00:43:39.881Z,1023.04
2017-03-13T00:44:20.358Z,1023.08
2017-03-13T00:45:00.827Z,1023.01
2017-03-13T00:45:41.333Z,1023.02
2017-03-13T00:46:21.861Z,1023.07
2017-03-13T00:47:02.334Z,1023.03
2017-03-13T00:47:42.803Z,1022.99
2017-03-13T00:48:23.288Z,1022.96
2017-03-13T00:49:03.791Z,1023.02
2017-03-13T00:49:44.268Z,1022.99
2017-03-13T00:50:24.782Z,1022.95
2017-03-13T00:51:05.286Z,1022.91
2017-03-13T00:51:45.770Z,1022.97
2017-03-13T00:52:26.254Z,1022.93
2017-03-13T00:53:06.731Z,1022.92
2017-03-13T00:53:47.235Z,1022.9
2017-03-13T00:54:27.694Z,1022.88
2017-03-13T00:55:08.182Z,1022.83
2017-03-13T00:55:48.699Z,1022.85
2017-03-13T00:56:29.160Z,1022.8
2017-03-13T00:57:09.643Z,1022.8
2017-03-13T00:57:50.142Z,1022.86
2017-03-13T00:58:30.599Z,1022.86
2017-03-13T00:59:11.128Z,1022.81
2017-03-13T00:59:51.596Z,1022.86
2017-03-13T01:00:32.094Z,1022.81
2017-03-13T01:01:12.578Z,1022.83
2017-03-13T01:01:53.015Z,1022.77
2017-03-13T01:02:33.488Z,1022.86
2017-03-13T01:03:14.011Z,1022.84
2017-03-13T01:03:54.464Z,1022.82
2017-03-13T01:04:34.960Z,1022.8
2017-03-13T01:05:15.505Z,1022.8
2017-03-13T01:05:55.942Z,1022.78
2017-03-13T01:06:36.393Z,1022.78
2017-03-13T01:07:16.886Z,1022.81
2017-03-13T01:07:57.375Z,1022.76
2017-03-13T01:08:37.846Z,1022.8
2017-03-13T01:09:18.388Z,1022.78
2017-03-13T01:09:58.856Z,1022.81
2017-03-13T01:10:39.341Z,1022.81
2017-03-13T01:11:19.859Z,1022.84
2017-03-13T01:12:00.310Z,1022.84
2017-03-13T01:12:40.848Z,1022.85
2017-03-13T01:13:21.325Z,1022.87
2017-03-13T01:14:01.835Z,1022.93
2017-03-13T01:14:42.330Z,1022.89
2017-03-13T01:15:22.776Z,1022.94
2017-03-13T01:16:03.312Z,1023.02
2017-03-13T01:16:43.817Z,1022.97
2017-03-13T01:17:24.279Z,1023.04
2017-03-13T01:18:04.796Z,1023.02
2017-03-13T01:18:45.261Z,1023.04
2017-03-13T01:19:25.723Z,1023.06
2017-03-13T01:20:06.215Z,1023.02
2017-03-13T01:20:46.690Z,1023.06
2017-03-13T01:21:27.198Z,1023.09
2017-03-13T01:22:07.659Z,1023.05
2017-03-13T01:22:48.161Z,1023.02
2017-03-13T01:23:28.612Z,1023.05
2017-03-13T01:24:09.084Z,1023.04
2017-03-13T01:24:49.563Z,1023.04
2017-03-13T01:25:30.151Z,1023.04
2017-03-13T01:26:10.660Z,1023.03
2017-03-13T01:26:51.168Z,1023.04
2017-03-13T01:27:31.636Z,1023.01
2017-03-13T01:28:12.164Z,1023.03
2017-03-13T01:28:52.625Z,1023
2017-03-13T01:29:33.127Z,1023.03
2017-03-13T01:30:13.614Z,1023.03
2017-03-13T01:30:54.074Z,1023.05
2017-03-13T01:31:34.574Z,1023.06
2017-03-13T01:32:15.021Z,1023
2017-03-13T01:32:55.502Z,1023.06
2017-03-13T01:33:35.979Z,1023.01
2017-03-13T01:34:16.446Z,1022.99
2017-03-13T01:34:56.937Z,1023.03
2017-03-13T01:35:37.428Z,1023.01
2017-03-13T01:36:17.968Z,1023.03
2017-03-13T01:36:58.428Z,1023
2017-03-13T01:37:38.928Z,1023.03
2017-03-13T01:38:19.428Z,1023.06
2017-03-13T01:38:59.918Z,1023.08
2017-03-13T01:39:40.387Z,1023.04
2017-03-13T01:40:20.932Z,1023.04
2017-03-13T01:41:01.390Z,1023.09
2017-03-13T01:41:41.860Z,1023.07
2017-03-13T01:42:22.430Z,1023.09
2017-03-13T01:43:02.896Z,1023.08
2017-03-13T01:43:43.388Z,1023.08
2017-03-13T01:44:23.875Z,1023.1
2017-03-13T01:45:04.363Z,1023.11
2017-03-13T01:45:44.821Z,1023.06
2017-03-13T01:46:25.297Z,1023.06
2017-03-13T01:47:05.819Z,1023.05
2017-03-13T01:47:46.292Z,1023.04
2017-03-13T01:48:26.801Z,1023.04
2017-03-13T01:49:07.293Z,1023.01
2017-03-13T01:49:47.754Z,1023.01
2017-03-13T01:50:28.222Z,1023
2017-03-13T01:51:08.704Z,1023.06
2017-03-13T01:51:49.263Z,1023.06
2017-03-13T01:52:29.718Z,1023.01
2017-03-13T01:53:10.195Z,1023.02
2017-03-13T01:53:50.695Z,1023
2017-03-13T01:54:31.157Z,1023.02
2017-03-13T01:55:11.651Z,1023
2017-03-13T01:55:52.155Z,1023.04
2017-03-13T01:56:32.643Z,1023.03
2017-03-13T01:57:13.163Z,1023.07
2017-03-13T01:57:53.623Z,1023.02
2017-03-13T01:58:34.139Z,1023.04
2017-03-13T01:59:14.609Z,1023.06
2017-03-13T01:59:55.094Z,1023.03
2017-03-13T02:00:35.603Z,1023.05
2017-03-13T02:01:16.075Z,1023.06
2017-03-13T02:01:56.553Z,1023.05
2017-03-13T02:02:37.037Z,1023.03
2017-03-13T02:03:17.532Z,1023.03
2017-03-13T02:03:58.063Z,1023.03
2017-03-13T02:04:38.576Z,1023
2017-03-13T02:05:19.031Z,1023.06
2017-03-13T02:05:59.510Z,1023.03
2017-03-13T02:06:39.978Z,1023.01
2017-03-13T02:07:20.454Z,1023.02
2017-03-13T02:08:00.989Z,1023
2017-03-13T02:08:41.480Z,1023.02
2017-03-13T02:09:21.933Z,1023.03
2017-03-13T02:10:02.424Z,1023.01
2017-03-13T02:10:42.907Z,1023.03
2017-03-13T02:11:23.381Z,1023
2017-03-13T02:12:03.878Z,1023.02
2017-03-13T02:12:44.349Z,1023.01
2017-03-13T02:13:24.841Z,1022.96
2017-03-13T02:14:05.327Z,1023.02
2017-03-13T02:14:45.840Z,1023.01
2017-03-13T02:15:26.304Z,1022.95
2017-03-13T02:16:06.762Z,1023.04
2017-03-13T02:16:47.275Z,1022.97
2017-03-13T02:17:27.813Z,1023.02
2017-03-13T02:18:08.258Z,1022.99
2017-03-13T02:18:48.752Z,1022.99
2017-03-13T02:19:29.245Z,1023.01
2017-03-13T02:20:09.745Z,1023.01
2017-03-13T02:20:50.224Z,1023.03
2017-03-13T02:21:30.703Z,1022.96
2017-03-13T02:22:11.249Z,1023.01
2017-03-13T02:22:51.665Z,1023.04
2017-03-13T02:23:32.167Z,1023.05
2017-03-13T02:24:12.646Z,1023.05
2017-03-13T02:24:53.099Z,1023.04
2017-03-13T02:25:33.574Z,1023.03
2017-03-13T02:26:14.051Z,1023.09
2017-03-13T02:26:54.537Z,1023.07
2017-03-13T02:27:35.015Z,1023.03
2017-03-13T02:28:15.456Z,1023.05
2017-03-13T02:28:55.982Z,1023.04
2017-03-13T02:29:36.453Z,1023.04
2017-03-13T02:30:16.959Z,1023
2017-03-13T02:30:57.439Z,1023.04
2017-03-13T02:31:37.904Z,1023.02
2017-03-13T02:32:18.405Z,1022.99
2017-03-13T02:32:58.887Z,1023.03
2017-03-13T02:33:39.379Z,1022.97
2017-03-13T02:34:19.805Z,1022.94
2017-03-13T02:35:00.302Z,1022.96
2017-03-13T02:35:40.779Z,1022.91
2017-03-13T02:36:21.321Z,1022.93
2017-03-13T02:37:01.818Z,1022.91
2017-03-13T02:37:42.290Z,1022.92
2017-03-13T02:38:22.800Z,1022.95
2017-03-13T02:39:03.239Z,1022.93
2017-03-13T02:39:43.721Z,1022.94
2017-03-13T02:40:24.216Z,1022.92
2017-03-13T02:41:04.662Z,1022.92
2017-03-13T02:41:45.147Z,1023
2017-03-13T02:42:25.722Z,1022.92
2017-03-13T02:43:06.130Z,1022.95
2017-03-13T02:43:46.613Z,1022.93
2017-03-13T02:44:27.114Z,1022.99
2017-03-13T02:45:07.579Z,1022.99
2017-03-13T02:45:48.082Z,1022.98
2017-03-13T02:46:28.563Z,1022.98
2017-03-13T02:47:09.048Z,1022.99
2017-03-13T02:47:49.557Z,1023.02
2017-03-13T02:48:30.033Z,1023
2017-03-13T02:49:10.555Z,1023
2017-03-13T02:49:51.024Z,1022.99
2017-03-13T02:50:31.505Z,1023
2017-03-13T02:51:11.994Z,1022.97
2017-03-13T02:51:52.480Z,1023.07
2017-03-13T02:52:32.923Z,1023.06
2017-03-13T02:53:13.456Z,1023.06
2017-03-13T02:53:53.940Z,1023.05
2017-03-13T02:54:34.421Z,1023.07
2017-03-13T02:55:14.921Z,1023.08
2017-03-13T02:55:55.375Z,1023.12
2017-03-13T02:56:35.942Z,1023.1
2017-03-13T02:57:16.403Z,1023.07
2017-03-13T02:57:56.878Z,1023.08
2017-03-13T02:58:37.353Z,1023.11
2017-03-13T02:59:17.819Z,1023.06
2017-03-13T02:59:58.289Z,1023.07
2017-03-13T03:00:38.758Z,1023.13
2017-03-13T03:01:19.228Z,1023.1
2017-03-13T03:01:59.695Z,1023.14
2017-03-13T03:02:40.169Z,1023.18
2017-03-13T03:03:20.677Z,1023.12
2017-03-13T03:04:01.170Z,1023.11
2017-03-13T03:04:41.668Z,1023.13
2017-03-13T03:05:22.154Z,1023.05
2017-03-13T03:06:02.629Z,1023.1
2017-03-13T03:06:43.141Z,1023.12
2017-03-13T03:07:23.645Z,1023.09
2017-03-13T03:08:04.115Z,1023.12
2017-03-13T03:08:44.583Z,1023.06
2017-03-13T03:09:25.102Z,1023.07
2017-03-13T03:10:05.545Z,1023.05
2017-03-13T03:10:46.053Z,1023.03
2017-03-13T03:11:26.537Z,1023.06
2017-03-13T03:12:07.004Z,1023.05
2017-03-13T03:12:47.490Z,1023.04
2017-03-13T03:13:27.992Z,1023.08
2017-03-13T03:14:08.460Z,1023.05
2017-03-13T03:14:48.954Z,1023.04
2017-03-13T03:15:29.416Z,1023.03
2017-03-13T03:16:09.910Z,1022.98
2017-03-13T03:16:50.405Z,1022.99
2017-03-13T03:17:30.876Z,1023
2017-03-13T03:18:11.364Z,1023
2017-03-13T03:18:51.849Z,1022.97
2017-03-13T03:19:32.331Z,1022.98
2017-03-13T03:20:12.830Z,1022.97
2017-03-13T03:22:26.005Z,1022.99
2017-03-13T03:23:06.423Z,1022.98
2017-03-13T03:23:46.902Z,1023.03
2017-03-13T03:24:27.366Z,1023
2017-03-13T03:25:07.845Z,1023.06
2017-03-13T03:25:48.308Z,1023.09
2017-03-13T03:26:28.809Z,1023.09
2017-03-13T03:27:09.284Z,1023.05
2017-03-13T03:27:49.732Z,1023.06
2017-03-13T03:28:30.211Z,1023.06
2017-03-13T03:29:10.686Z,1023.04
2017-03-13T03:29:51.169Z,1023.05
2017-03-13T03:30:31.696Z,1023.03
2017-03-13T03:31:12.167Z,1023.06
2017-03-13T03:31:52.664Z,1023.04
2017-03-13T03:32:33.238Z,1023.04
2017-03-13T03:33:13.715Z,1023.05
2017-03-13T03:33:54.198Z,1023.09
2017-03-13T03:34:34.697Z,1023.08
2017-03-13T03:35:15.164Z,1023.07
2017-03-13T03:35:55.619Z,1023.05
2017-03-13T03:36:36.111Z,1023.01
2017-03-13T03:37:16.609Z,1023
2017-03-13T03:37:57.083Z,1022.96
2017-03-13T03:38:37.548Z,1022.96
2017-03-13T03:39:18.022Z,1022.99
2017-03-13T03:39:58.498Z,1022.97
2017-03-13T03:40:39.029Z,1022.97
2017-03-13T03:41:19.491Z,1022.98
2017-03-13T03:41:59.995Z,1022.95
2017-03-13T03:42:40.442Z,1022.93
2017-03-13T03:43:20.975Z,1022.89
2017-03-13T03:44:01.458Z,1022.94
2017-03-13T03:44:41.950Z,1022.9
2017-03-13T03:45:22.415Z,1022.92
2017-03-13T03:46:02.986Z,1022.89
2017-03-13T03:46:43.464Z,1022.84
2017-03-13T03:47:23.996Z,1022.91
2017-03-13T03:48:04.471Z,1022.87
2017-03-13T03:48:44.983Z,1022.9
2017-03-13T03:49:25.450Z,1022.89
2017-03-13T03:50:05.974Z,1022.85
2017-03-13T03:50:46.443Z,1022.86
2017-03-13T03:51:26.916Z,1022.82
2017-03-13T03:52:07.388Z,1022.82
2017-03-13T03:52:47.889Z,1022.82
2017-03-13T03:53:28.388Z,1022.82
2017-03-13T03:54:08.910Z,1022.81
2017-03-13T03:54:49.373Z,1022.83
2017-03-13T03:55:29.890Z,1022.78
2017-03-13T03:56:10.365Z,1022.81
2017-03-13T03:56:50.847Z,1022.79
2017-03-13T03:57:31.336Z,1022.79
2017-03-13T03:58:11.802Z,1022.75
2017-03-13T03:58:52.283Z,1022.78
2017-03-13T03:59:32.753Z,1022.77
2017-03-13T04:00:13.214Z,1022.81
2017-03-13T04:00:53.732Z,1022.76
2017-03-13T04:01:34.189Z,1022.77
2017-03-13T04:02:14.699Z,1022.73
2017-03-13T04:02:55.277Z,1022.75
2017-03-13T04:03:35.750Z,1022.77
2017-03-13T04:04:16.251Z,1022.7
2017-03-13T04:04:56.769Z,1022.72
2017-03-13T04:05:37.200Z,1022.73
2017-03-13T04:06:17.658Z,1022.74
2017-03-13T04:06:58.165Z,1022.75
2017-03-13T04:07:38.632Z,1022.77
2017-03-13T04:08:19.123Z,1022.8
2017-03-13T04:08:59.610Z,1022.82
2017-03-13T04:09:40.098Z,1022.78
2017-03-13T04:10:20.558Z,1022.79
2017-03-13T04:11:01.024Z,1022.79
2017-03-13T04:11:41.546Z,1022.85
2017-03-13T04:12:22.041Z,1022.88
2017-03-13T04:13:02.552Z,1022.89
2017-03-13T04:13:43.016Z,1022.86
2017-03-13T04:14:23.503Z,1022.88
2017-03-13T04:15:03.999Z,1022.91
2017-03-13T04:15:44.440Z,1022.93
2017-03-13T04:16:24.884Z,1022.9
2017-03-13T04:17:05.365Z,1022.93
2017-03-13T04:17:45.829Z,1022.88
2017-03-13T04:18:26.320Z,1022.91
2017-03-13T04:19:06.795Z,1022.91
2017-03-13T04:19:47.278Z,1022.89
2017-03-13T04:20:27.738Z,1022.93
2017-03-13T04:21:08.213Z,1022.9
2017-03-13T04:21:48.660Z,1022.89
2017-03-13T04:22:29.131Z,1022.86
2017-03-13T04:23:09.616Z,1022.9
2017-03-13T04:23:50.104Z,1022.92
2017-03-13T04:24:30.578Z,1022.92
2017-03-13T04:26:43.768Z,1022.86
2017-03-13T04:27:24.217Z,1022.92
2017-03-13T04:28:04.676Z,1022.91
2017-03-13T04:28:45.204Z,1022.88
2017-03-13T04:29:25.630Z,1022.88
2017-03-13T04:30:06.115Z,1022.87
2017-03-13T04:30:46.630Z,1022.8
2017-03-13T04:31:27.093Z,1022.78
2017-03-13T04:32:07.570Z,1022.82
2017-03-13T04:32:48.068Z,1022.79
2017-03-13T04:33:28.515Z,1022.77
2017-03-13T04:34:08.998Z,1022.78
2017-03-13T04:34:49.499Z,1022.77
2017-03-13T04:35:29.996Z,1022.79
2017-03-13T04:36:10.434Z,1022.75
2017-03-13T04:36:50.900Z,1022.74
2017-03-13T04:37:31.379Z,1022.73
2017-03-13T04:38:11.879Z,1022.74
2017-03-13T04:38:52.339Z,1022.74
2017-03-13T04:39:32.812Z,1022.76
2017-03-13T04:40:13.312Z,1022.75
2017-03-13T04:40:53.772Z,1022.77
2017-03-13T04:41:34.267Z,1022.78
2017-03-13T04:42:14.771Z,1022.75
2017-03-13T04:42:55.213Z,1022.79
2017-03-13T04:43:35.700Z,1022.77
2017-03-13T04:44:16.167Z,1022.78
2017-03-13T04:44:56.715Z,1022.77
2017-03-13T04:45:37.179Z,1022.76
2017-03-13T04:46:17.654Z,1022.75
2017-03-13T04:46:58.153Z,1022.73
2017-03-13T04:47:38.623Z,1022.74
2017-03-13T04:48:19.144Z,1022.71
2017-03-13T04:48:59.624Z,1022.71
2017-03-13T04:49:40.116Z,1022.72
2017-03-13T04:50:20.584Z,1022.73
2017-03-13T04:51:01.083Z,1022.78
2017-03-13T04:51:41.513Z,1022.79
2017-03-13T04:52:21.984Z,1022.8
2017-03-13T04:53:02.455Z,1022.83
2017-03-13T04:53:42.964Z,1022.87
2017-03-13T04:54:23.459Z,1022.87
2017-03-13T04:55:03.914Z,1022.84
2017-03-13T04:55:44.389Z,1022.85
2017-03-13T04:56:24.866Z,1022.87
2017-03-13T04:57:05.331Z,1022.88
2017-03-13T04:57:45.806Z,1022.85
2017-03-13T04:58:26.283Z,1022.86
2017-03-13T04:59:06.770Z,1022.84
2017-03-13T04:59:47.238Z,1022.82
2017-03-13T05:00:27.741Z,1022.81
2017-03-13T05:01:08.215Z,1022.78
2017-03-13T05:01:48.663Z,1022.82
2017-03-13T05:02:29.154Z,1022.86
2017-03-13T05:03:09.641Z,1022.82
2017-03-13T05:03:50.161Z,1022.82
2017-03-13T05:04:30.603Z,1022.81
2017-03-13T05:05:11.135Z,1022.79
2017-03-13T05:05:51.628Z,1022.84
2017-03-13T05:06:32.065Z,1022.81
2017-03-13T05:07:12.552Z,1022.81
2017-03-13T05:07:53.010Z,1022.81
2017-03-13T05:08:33.488Z,1022.83
2017-03-13T05:09:13.940Z,1022.81
2017-03-13T05:09:54.421Z,1022.83
2017-03-13T05:10:34.920Z,1022.84
2017-03-13T05:11:15.358Z,1022.87
2017-03-13T05:11:55.914Z,1022.83
2017-03-13T05:12:36.336Z,1022.84
2017-03-13T05:13:16.852Z,1022.82
2017-03-13T05:13:57.347Z,1022.82
2017-03-13T05:14:37.865Z,1022.81
2017-03-13T05:15:18.336Z,1022.79
2017-03-13T05:15:58.846Z,1022.78
2017-03-13T05:16:39.295Z,1022.74
2017-03-13T05:17:19.797Z,1022.77
2017-03-13T05:18:00.278Z,1022.74
2017-03-13T05:18:40.765Z,1022.69
2017-03-13T05:19:21.282Z,1022.69
2017-03-13T05:20:01.769Z,1022.74
2017-03-13T05:20:42.261Z,1022.68
2017-03-13T05:21:29.338Z,1022.69
2017-03-13T05:22:09.867Z,1022.62
2017-03-13T05:22:50.441Z,1022.68
2017-03-13T05:23:31.320Z,1022.65
2017-03-13T05:24:11.840Z,1022.64
2017-03-13T05:24:52.326Z,1022.58
2017-03-13T05:25:32.856Z,1022.55
2017-03-13T05:26:13.355Z,1022.6
2017-03-13T05:26:53.979Z,1022.53
2017-03-13T05:27:34.440Z,1022.48
2017-03-13T05:28:14.893Z,1022.48
2017-03-13T05:28:55.375Z,1022.51
2017-03-13T05:29:35.970Z,1022.5
2017-03-13T05:30:16.493Z,1022.52
2017-03-13T05:30:56.984Z,1022.51
2017-03-13T05:31:37.465Z,1022.49
2017-03-13T05:32:17.959Z,1022.52
2017-03-13T05:32:58.454Z,1022.53
2017-03-13T05:33:38.975Z,1022.54
2017-03-13T05:34:19.444Z,1022.48
2017-03-13T05:34:59.920Z,1022.44
2017-03-13T05:35:40.410Z,1022.45
2017-03-13T05:36:20.902Z,1022.44
2017-03-13T05:37:01.408Z,1022.44
2017-03-13T05:37:41.917Z,1022.41
2017-03-13T05:38:22.368Z,1022.43
2017-03-13T05:39:02.869Z,1022.42
2017-03-13T05:39:43.370Z,1022.4
2017-03-13T05:40:23.877Z,1022.46
2017-03-13T05:41:04.339Z,1022.46
2017-03-13T05:41:44.814Z,1022.47
2017-03-13T05:42:25.287Z,1022.49
2017-03-13T05:43:05.785Z,1022.55
2017-03-13T05:43:46.286Z,1022.57
2017-03-13T05:44:26.787Z,1022.61
2017-03-13T05:45:07.244Z,1022.59
2017-03-13T05:45:47.731Z,1022.61
2017-03-13T05:46:28.235Z,1022.64
2017-03-13T05:47:08.709Z,1022.62
2017-03-13T05:47:49.172Z,1022.64
2017-03-13T05:48:29.650Z,1022.61
2017-03-13T05:49:10.133Z,1022.62
2017-03-13T05:49:50.790Z,1022.66
2017-03-13T05:50:31.264Z,1022.65
2017-03-13T05:51:11.773Z,1022.66
2017-03-13T05:51:52.254Z,1022.65
2017-03-13T05:52:32.726Z,1022.65
2017-03-13T05:53:13.217Z,1022.59
2017-03-13T05:53:53.705Z,1022.67
2017-03-13T05:54:34.170Z,1022.64
2017-03-13T05:55:14.674Z,1022.69
2017-03-13T05:55:55.148Z,1022.66
2017-03-13T05:56:35.631Z,1022.67
2017-03-13T05:57:16.102Z,1022.68
2017-03-13T05:57:56.584Z,1022.7
2017-03-13T05:58:37.065Z,1022.71
2017-03-13T05:59:17.551Z,1022.72
2017-03-13T05:59:58.047Z,1022.75
2017-03-13T06:00:38.590Z,1022.68
2017-03-13T06:01:19.106Z,1022.75
2017-03-13T06:01:59.586Z,1022.73
2017-03-13T06:02:40.071Z,1022.73
2017-03-13T06:03:20.506Z,1022.73
2017-03-13T06:04:01.015Z,1022.75
2017-03-13T06:04:41.500Z,1022.74
2017-03-13T06:05:21.951Z,1022.8
2017-03-13T06:07:14.955Z,1022.78
2017-03-13T06:07:55.420Z,1022.73
2017-03-13T06:08:35.920Z,1022.75
2017-03-13T06:09:16.485Z,1022.76
2017-03-13T06:09:56.981Z,1022.74
2017-03-13T06:10:37.466Z,1022.78
2017-03-13T06:11:17.995Z,1022.77
2017-03-13T06:11:58.475Z,1022.74
2017-03-13T06:12:39.012Z,1022.77
2017-03-13T06:13:19.499Z,1022.7
2017-03-13T06:13:59.956Z,1022.74
2017-03-13T06:14:40.455Z,1022.7
2017-03-13T06:15:20.940Z,1022.73
2017-03-13T06:16:01.464Z,1022.73
2017-03-13T06:16:41.932Z,1022.7
2017-03-13T06:17:22.425Z,1022.74
2017-03-13T06:18:02.900Z,1022.74
2017-03-13T06:18:43.410Z,1022.74
2017-03-13T06:19:23.888Z,1022.74
2017-03-13T06:20:04.374Z,1022.76
2017-03-13T06:20:44.863Z,1022.75
2017-03-13T06:21:25.397Z,1022.81
2017-03-13T06:22:05.869Z,1022.83
2017-03-13T06:22:46.355Z,1022.83
2017-03-13T06:23:26.857Z,1022.89
2017-03-13T06:24:07.282Z,1022.83
2017-03-13T06:24:47.758Z,1022.88
2017-03-13T06:25:28.269Z,1022.88
2017-03-13T06:26:08.732Z,1022.9
2017-03-13T06:26:49.274Z,1022.9
2017-03-13T06:27:29.749Z,1022.93
2017-03-13T06:28:10.244Z,1022.9
2017-03-13T06:28:50.728Z,1022.95
2017-03-13T06:29:31.208Z,1022.93
2017-03-13T06:30:11.673Z,1022.96
2017-03-13T06:30:52.171Z,1022.95
2017-03-13T06:31:35.344Z,1023.03
2017-03-13T06:32:15.819Z,1022.99
2017-03-13T06:32:56.315Z,1022.99
2017-03-13T06:33:36.809Z,1022.98
2017-03-13T06:34:17.291Z,1022.98
2017-03-13T06:34:57.785Z,1022.96
2017-03-13T06:35:38.284Z,1023
2017-03-13T06:36:18.762Z,1022.98
2017-03-13T06:36:59.239Z,1022.98
2017-03-13T06:37:39.745Z,1023
2017-03-13T06:38:20.223Z,1023
2017-03-13T06:39:00.748Z,1023.02
2017-03-13T06:39:41.238Z,1023.02
2017-03-13T06:40:21.714Z,1023.05
2017-03-13T06:41:02.185Z,1023.05
2017-03-13T06:41:42.668Z,1023.06
2017-03-13T06:42:23.159Z,1023.1
2017-03-13T06:43:03.635Z,1023.09
2017-03-13T06:43:44.099Z,1023.06
2017-03-13T06:44:24.593Z,1023.06
2017-03-13T06:45:05.088Z,1023.07
2017-03-13T06:45:45.567Z,1023.1
2017-03-13T06:46:26.100Z,1023.09
2017-03-13T06:47:06.573Z,1023.16
2017-03-13T06:47:47.087Z,1023.19
2017-03-13T06:48:27.581Z,1023.17
2017-03-13T06:49:08.097Z,1023.19
2017-03-13T06:49:48.579Z,1023.16
2017-03-13T06:50:29.082Z,1023.15
2017-03-13T06:51:09.558Z,1023.2
2017-03-13T06:51:50.068Z,1023.14
2017-03-13T06:52:30.525Z,1023.13
2017-03-13T06:53:11.073Z,1023.13
2017-03-13T06:53:51.551Z,1023.15
2017-03-13T06:54:32.012Z,1023.12
2017-03-13T06:55:12.506Z,1023.1
2017-03-13T06:55:53.024Z,1023.16
2017-03-13T06:56:33.555Z,1023.19
2017-03-13T06:57:14.064Z,1023.2
2017-03-13T06:57:54.567Z,1023.18
2017-03-13T06:58:35.029Z,1023.27
2017-03-13T06:59:15.521Z,1023.26
2017-03-13T06:59:56.080Z,1023.32
2017-03-13T07:00:36.492Z,1023.3
2017-03-13T07:01:16.985Z,1023.31
2017-03-13T07:01:57.551Z,1023.31
2017-03-13T07:02:38.068Z,1023.3
2017-03-13T07:03:18.528Z,1023.36
2017-03-13T07:03:59.037Z,1023.37
2017-03-13T07:04:39.487Z,1023.46
2017-03-13T07:05:20.004Z,1023.48
2017-03-13T07:06:00.473Z,1023.48
2017-03-13T07:06:40.997Z,1023.54
2017-03-13T07:07:21.494Z,1023.57
2017-03-13T07:08:01.986Z,1023.58
2017-03-13T07:08:42.497Z,1023.59
2017-03-13T07:09:22.965Z,1023.59
2017-03-13T07:10:03.497Z,1023.61
2017-03-13T07:10:43.959Z,1023.61
2017-03-13T07:11:24.478Z,1023.65
2017-03-13T07:12:05.032Z,1023.64
2017-03-13T07:12:45.558Z,1023.64
2017-03-13T07:13:26.106Z,1023.63
2017-03-13T07:14:06.598Z,1023.58
2017-03-13T07:14:47.099Z,1023.64
2017-03-13T07:15:27.552Z,1023.67
2017-03-13T07:16:08.039Z,1023.69
2017-03-13T07:16:48.524Z,1023.64
2017-03-13T07:17:29.115Z,1023.64
2017-03-13T07:18:09.591Z,1023.63
2017-03-13T07:18:50.062Z,1023.64
2017-03-13T07:19:30.566Z,1023.64
2017-03-13T07:20:11.091Z,1023.64
2017-03-13T07:20:51.686Z,1023.62
2017-03-13T07:21:32.173Z,1023.6
2017-03-13T07:22:12.641Z,1023.54
2017-03-13T07:22:53.120Z,1023.53
2017-03-13T07:23:33.599Z,1023.54
2017-03-13T07:24:14.091Z,1023.54
2017-03-13T07:24:54.568Z,1023.53
2017-03-13T07:25:35.043Z,1023.55
2017-03-13T07:26:15.509Z,1023.53
2017-03-13T07:26:55.974Z,1023.58
2017-03-13T07:27:36.463Z,1023.56
2017-03-13T07:28:16.931Z,1023.64
2017-03-13T07:28:57.412Z,1023.59
2017-03-13T07:29:37.895Z,1023.61
2017-03-13T07:30:18.419Z,1023.63
2017-03-13T07:30:58.873Z,1023.58
2017-03-13T07:31:39.321Z,1023.6
2017-03-13T07:32:20.112Z,1023.58
2017-03-13T07:33:00.616Z,1023.55
2017-03-13T07:33:41.138Z,1023.51
2017-03-13T07:34:21.621Z,1023.52
2017-03-13T07:35:02.123Z,1023.57
2017-03-13T07:35:42.548Z,1023.53
2017-03-13T07:36:23.034Z,1023.47
2017-03-13T07:37:03.530Z,1023.47
2017-03-13T07:37:44.031Z,1023.49
2017-03-13T07:38:24.569Z,1023.48
2017-03-13T07:39:05.096Z,1023.52
2017-03-13T07:39:45.540Z,1023.53
2017-03-13T07:40:25.993Z,1023.45
2017-03-13T07:41:06.562Z,1023.5
2017-03-13T07:41:47.069Z,1023.47
2017-03-13T07:42:27.536Z,1023.45
2017-03-13T07:43:08.093Z,1023.5
2017-03-13T07:43:48.574Z,1023.49
2017-03-13T07:44:29.057Z,1023.55
2017-03-13T07:45:09.538Z,1023.55
2017-03-13T07:45:50.099Z,1023.58
2017-03-13T07:46:30.626Z,1023.63
2017-03-13T07:47:11.263Z,1023.62
2017-03-13T07:47:51.990Z,1023.7
2017-03-13T07:48:32.504Z,1023.72
2017-03-13T07:49:13.024Z,1023.73
2017-03-13T07:49:54.367Z,1023.77
2017-03-13T07:50:34.837Z,1023.8
2017-03-13T07:51:15.347Z,1023.73
2017-03-13T07:51:56.826Z,1023.8
2017-03-13T07:52:37.297Z,1023.79
2017-03-13T07:53:17.796Z,1023.76
2017-03-13T07:53:58.260Z,1023.8
2017-03-13T07:54:39.868Z,1023.81
2017-03-13T07:55:20.416Z,1023.9
2017-03-13T07:56:00.939Z,1023.95
2017-03-13T07:56:41.427Z,1024
2017-03-13T07:57:21.916Z,1024
2017-03-13T07:58:02.612Z,1024.04
2017-03-13T07:58:42.989Z,1024.06
2017-03-13T07:59:23.547Z,1024.07
2017-03-13T08:00:04.002Z,1024.08
2017-03-13T08:00:44.458Z,1024.04
2017-03-13T08:01:24.953Z,1024.03
2017-03-13T08:02:05.425Z,1024.03
2017-03-13T08:02:45.948Z,1023.98
2017-03-13T08:03:26.465Z,1024
2017-03-13T08:04:06.880Z,1023.97
2017-03-13T08:04:48.123Z,1023.93
2017-03-13T08:05:28.595Z,1023.89
2017-03-13T08:06:09.095Z,1023.9
2017-03-13T08:06:49.572Z,1023.85
2017-03-13T08:07:30.044Z,1023.85
2017-03-13T08:08:10.701Z,1023.88
2017-03-13T08:08:51.360Z,1023.89
2017-03-13T08:09:32.023Z,1023.91
2017-03-13T08:10:12.515Z,1023.9
2017-03-13T08:10:52.979Z,1023.91
2017-03-13T08:11:33.940Z,1023.86
2017-03-13T08:12:15.169Z,1023.87
2017-03-13T08:12:55.688Z,1023.82
2017-03-13T08:13:37.483Z,1023.81
2017-03-13T08:14:18.097Z,1023.77
2017-03-13T08:14:58.643Z,1023.74
2017-03-13T08:15:39.911Z,1023.73
2017-03-13T08:16:20.637Z,1023.68
2017-03-13T08:17:01.127Z,1023.66